Flight Track Log - Related Links

Times and Time Zones

All times are in EDT time to prevent confusion due to time zone crossing. See the ASQ4976 flight status page for this flight to view local times or setup timezone preferences in your user account.

Time Position Orientation Groundspeed Altitude Reporting Facility
EDT Latitude Longitude Course Direction KTS MPH feet Rate Location/Type
Fri 12:48:11 PM 42.7194 -73.8078 238° Southwest 167 192 1,500  Level Boston Center
Fri 12:49:56 PM 42.6722 -73.9086 238° Southwest 225 259 4,600 1,964 Climbing Boston Center
Fri 12:50:56 PM 42.6522 -74.0069 255° West 262 302 6,900 2,450 Climbing Boston Center
Fri 12:51:56 PM 42.6300 -74.1106 254° West 279 321 9,500 2,450 Climbing Boston Center
Fri 12:52:56 PM 42.6075 -74.2089 253° West 296 341 11,800 2,100 Climbing Boston Center
Fri 12:53:56 PM 42.5619 -74.3175 240° Southwest 307 353 13,700 1,650 Climbing Boston Center
Fri 12:54:56 PM 42.4919 -74.2731 155° Southeast 261 300 15,100 1,350 Climbing Boston Center
Fri 12:55:56 PM 42.4375 -74.1506 121° Southeast 316 364 16,400 1,250 Climbing Boston Center
Fri 12:56:56 PM 42.3467 -74.0947 156° South 385 443 17,600 1,250 Climbing Boston Center
Fri 12:57:56 PM 42.2286 -74.0356 160° South 405 466 18,900 1,300 Climbing Boston Center
Fri 12:58:56 PM 42.1183 -74.0383 181° South 414 476 20,200 1,450 Climbing Boston Center
Fri 12:59:56 PM 41.9847 -74.0517 184° South 426 490 21,800 1,550 Climbing Boston Center
Fri 01:00:56 PM 41.8614 -74.0597 183° South 443 510 23,300 1,300 Climbing Boston Center
Fri 01:01:56 PM 41.7578 -74.0208 164° South 448 516 24,400 1,050 Climbing Boston Center
Fri 01:02:56 PM 41.6614 -73.9183 142° Southeast 417 480 25,400 1,050 Climbing Boston Center
Fri 01:03:56 PM 41.5817 -73.7861 129° Southeast 431 496 26,500 1,050 Climbing Boston Center
Fri 01:04:56 PM 41.5167 -73.6433 121° Southeast 431 496 27,500 1,000 Climbing Boston Center
Fri 01:05:56 PM 41.4050 -73.5636 152° Southeast 436 502 28,500 933 Climbing Boston Center
Fri 01:08:09 PM 41.1875 -73.7983 219° Southwest 408 470 30,500 866 Climbing New York Center
Fri 01:09:10 PM 41.1128 -73.9408 235° Southwest 445 512 31,300 793 Climbing New York Center
Fri 01:10:10 PM 41.0339 -74.0858 234° Southwest 468 539 32,100 694 Climbing New York Center
Fri 01:11:11 PM 40.9481 -74.2408 234° Southwest 480 552 32,700 645 Climbing New York Center
Fri 01:12:11 PM 40.8667 -74.3847 233° Southwest 490 564 33,400 661 Climbing New York Center
Fri 01:13:09 PM 40.7914 -74.5289 235° Southwest 495 570 34,000 305 Climbing New York Center
Fri 01:14:09 PM 40.7161 -74.6697 235° Southwest 490 564 34,000  Level New York Center
Fri 01:15:12 PM 40.6406 -74.8078 234° Southwest 480 552 34,000  Level New York Center
Fri 01:16:09 PM 40.5650 -74.9453 234° Southwest 480 552 34,000  Level New York Center
Fri 01:17:09 PM 40.4914 -75.0800 234° Southwest 475 547 34,000  Level New York Center
Fri 01:18:10 PM 40.4175 -75.2144 234° Southwest 470 541 34,000  Level New York Center
Fri 01:19:11 PM 40.3436 -75.3486 234° Southwest 460 529 34,000  Level New York Center
Fri 01:20:11 PM 40.2475 -75.4592 221° Southwest 460 529 34,000  Level New York Center
Fri 01:21:11 PM 40.1375 -75.5550 214° Southwest 460 529 34,000  Level New York Center
Fri 01:22:09 PM 40.0389 -75.6703 222° Southwest 472 543 34,000  Level New York Center
Fri 01:23:10 PM 39.9603 -75.8056 233° Southwest 472 543 34,000  Level New York Center
Fri 01:24:11 PM 39.8814 -75.9406 233° Southwest 472 543 34,000  Level New York Center
Fri 01:25:11 PM 39.8025 -76.0725 232° Southwest 478 550 34,000  Level New York Center
Fri 01:28:00 PM 39.5836 -76.4369 232° Southwest 477 549 34,000  Level Washington Center
Fri 01:29:00 PM 39.5014 -76.5650 230° Southwest 477 549 34,000  Level Washington Center
Fri 01:30:01 PM 39.4211 -76.6958 232° Southwest 477 549 34,000  Level Washington Center
Fri 01:31:01 PM 39.3406 -76.8286 232° Southwest 472 543 34,000  Level Washington Center
Fri 01:31:59 PM 39.2619 -76.9586 232° Southwest 472 543 34,000  Level Washington Center
Fri 01:32:59 PM 39.1833 -77.0883 232° Southwest 472 543 34,000  Level Washington Center
Fri 01:34:00 PM 39.1003 -77.2206 231° Southwest 472 543 34,000  Level Washington Center
Fri 01:35:00 PM 39.0214 -77.3469 231° Southwest 466 536 34,000  Level Washington Center
Fri 01:36:00 PM 38.9444 -77.4733 232° Southwest 466 536 34,000  Level Washington Center
Fri 01:36:59 PM 38.8567 -77.6150 232° Southwest 471 542 34,000  Level Washington Center
Fri 01:37:59 PM 38.7819 -77.7300 230° Southwest 466 536 34,000  Level Washington Center
Fri 01:39:00 PM 38.7022 -77.8608 232° Southwest 466 536 34,000  Level Washington Center
Fri 01:40:00 PM 38.6164 -77.9964 231° Southwest 466 536 34,000  Level Washington Center
Fri 01:40:59 PM 38.5386 -78.1186 231° Southwest 459 528 34,000  Level Washington Center
Fri 01:41:59 PM 38.4589 -78.2458 231° Southwest 459 528 34,000  Level Washington Center
Fri 01:43:00 PM 38.3767 -78.3728 230° Southwest 459 528 34,000  Level Washington Center
Fri 01:44:01 PM 38.3008 -78.4942 232° Southwest 459 528 34,000  Level Washington Center
Fri 01:44:59 PM 38.2228 -78.6181 231° Southwest 454 522 34,000  Level Washington Center
Fri 01:45:59 PM 38.1444 -78.7417 231° Southwest 454 522 34,000  Level Washington Center
Fri 01:47:00 PM 38.0728 -78.8494 230° Southwest 454 522 34,000  Level Washington Center
Fri 01:48:00 PM 37.9942 -78.9636 229° Southwest  Level FlightAware Approximate
Fri 01:48:01 PM 37.9942 -78.9725 228° Southwest 454 522 34,000  Level Washington Center
Fri 01:48:59 PM 37.9114 -79.0978 230° Southwest 459 528 34,000  Level Washington Center
Fri 01:49:59 PM 37.8286 -79.2147 228° Southwest 459 528 34,000  Level Washington Center
Fri 01:51:00 PM 37.7372 -79.3417 228° Southwest 459 528 34,000  Level Washington Center
Fri 01:52:01 PM 37.6589 -79.4453 226° Southwest 454 522 34,000  Level Washington Center
Fri 01:52:59 PM 37.5714 -79.5667 228° Southwest 447 514 34,000  Level Washington Center
Fri 01:53:59 PM 37.4992 -79.6650 227° Southwest 437 503 34,000  Level Washington Center
Fri 01:55:00 PM 37.4158 -79.7808 228° Southwest 434 499 34,000  Level Washington Center
Fri 01:55:00 PM 37.4303 -79.7437 228° Southwest  Level FlightAware Approximate
Fri 01:56:00 PM 37.3306 -79.8964 227° Southwest 429 494 34,000  Level Washington Center
Fri 01:57:49 PM 37.1894 -80.0814 226° Southwest 407 468 34,000  Level Atlanta Center
Fri 01:58:49 PM 37.1094 -80.1922 228° Southwest 412 474 34,000  Level Atlanta Center
Fri 01:59:49 PM 37.0275 -80.3028 227° Southwest 422 486 34,000  Level Atlanta Center
Fri 02:00:49 PM 36.9431 -80.4106 226° Southwest 429 494 34,000  Level Atlanta Center
Fri 02:01:49 PM 36.8528 -80.5342 228° Southwest 434 499 34,000  Level Atlanta Center
Fri 02:02:49 PM 36.7703 -80.6414 226° Southwest 434 499 34,000  Level Atlanta Center
Fri 02:03:49 PM 36.6900 -80.7483 227° Southwest 428 493 34,000  Level Atlanta Center
Fri 02:04:49 PM 36.6094 -80.8603 228° Southwest 434 499 34,000  Level Atlanta Center
Fri 02:05:49 PM 36.5247 -80.9697 226° Southwest 434 499 34,000  Level Atlanta Center
Fri 02:06:49 PM 36.4419 -81.0839 228° Southwest 440 506 34,000  Level Atlanta Center
Fri 02:07:49 PM 36.3692 -81.1792 227° Southwest 440 506 34,000  Level Atlanta Center
Fri 02:08:49 PM 36.2842 -81.2906 227° Southwest 435 501 34,000  Level Atlanta Center
Fri 02:09:49 PM 36.1989 -81.3989 226° Southwest 435 501 34,000  Level Atlanta Center
Fri 02:10:49 PM 36.1156 -81.5094 227° Southwest 435 501 34,000  Level Atlanta Center
Fri 02:11:49 PM 36.0303 -81.6225 227° Southwest 435 501 34,000  Level Atlanta Center
Fri 02:12:49 PM 35.9469 -81.7303 226° Southwest 435 501 34,000  Level Atlanta Center
Fri 02:13:49 PM 35.8633 -81.8378 226° Southwest 430 495 34,000  Level Atlanta Center
Fri 02:14:49 PM 35.7775 -81.9450 225° Southwest 435 501 34,000  Level Atlanta Center
Fri 02:15:49 PM 35.6939 -82.0519 226° Southwest 435 501 34,000  Level Atlanta Center
Fri 02:16:49 PM 35.6100 -82.1614 227° Southwest 435 501 34,000  Level Atlanta Center
Fri 02:17:49 PM 35.5281 -82.2678 227° Southwest 435 501 34,000 -450 Level Atlanta Center
Fri 02:18:49 PM 35.4358 -82.3819 225° Southwest 435 501 33,100 -1,200 Descending Atlanta Center
Fri 02:19:49 PM 35.3497 -82.4906 226° Southwest 435 501 31,600 -1,550 Descending Atlanta Center
Fri 02:20:49 PM 35.2675 -82.5889 224° Southwest 430 495 30,000 -1,550 Descending Atlanta Center
Fri 02:21:00 PM 35.2485 -82.6096 224° Southwest  Level FlightAware Approximate
Fri 02:21:49 PM 35.1892 -82.6842 225° Southwest 419 482 28,500  Level Atlanta Center
Fri 02:22:49 PM 35.1150 -82.7769 226° Southwest 399 459 27,000 -1,500 Descending Atlanta Center
Fri 02:23:49 PM 35.0367 -82.8744 226° Southwest 394 453 25,500 -1,500 Descending Atlanta Center
Fri 02:24:49 PM 34.9625 -82.9667 226° Southwest 389 448 24,000 -1,400 Descending Atlanta Center
Fri 02:25:49 PM 34.8964 -83.0486 225° Southwest 383 441 22,700 -1,000 Descending Atlanta Center
Fri 02:26:49 PM 34.8239 -83.1381 225° Southwest 383 441 22,000 -350 Descending Atlanta Center
Fri 02:27:49 PM 34.7350 -83.2222 218° Southwest 396 456 22,000  Level Atlanta Center
Fri 02:28:49 PM 34.6456 -83.3042 217° Southwest 407 468 22,000  Level Atlanta Center
Fri 02:29:49 PM 34.5606 -83.3881 219° Southwest 407 468 22,000 -350 Level Atlanta Center
Fri 02:30:49 PM 34.4733 -83.4719 218° Southwest 402 463 21,300 -1,300 Descending Atlanta Center
Fri 02:31:49 PM 34.3819 -83.5606 219° Southwest 394 453 19,400 -1,800 Descending Atlanta Center
Fri 02:32:49 PM 34.3008 -83.6389 219° Southwest 389 448 17,700 -1,750 Descending Atlanta Center
Fri 02:33:49 PM 34.2217 -83.7172 219° Southwest 381 438 15,900 -1,800 Descending Atlanta Center
Fri 02:34:49 PM 34.1406 -83.7928 218° Southwest 370 426 14,100 -950 Descending Atlanta Center
Fri 02:35:49 PM 34.0633 -83.8708 220° Southwest 370 426 14,000 -100 Descending Atlanta Center
Fri 02:36:49 PM 33.9883 -83.9511 222° Southwest 370 426 13,900 -650 Descending Atlanta Center
Fri 02:37:49 PM 33.9133 -84.0314 222° Southwest 370 426 12,700 -950 Descending Atlanta Center
Fri 02:38:49 PM 33.8339 -84.1064 218° Southwest 364 419 12,000 -344 Descending Atlanta Center
Fri 02:39:51 PM 33.7500 -84.1667 211° Southwest 291 335 12,000  Level Atlanta TRACON
Fri 02:40:51 PM 33.6833 -84.2000 203° Southwest 289 333 12,000  Level Atlanta TRACON
Fri 02:41:51 PM 33.6333 -84.2500 220° Southwest 262 302 12,000  Level Atlanta TRACON
Fri 02:42:51 PM 33.5667 -84.3000 212° Southwest 267 307 12,000 -350 Level Atlanta TRACON
Fri 02:43:51 PM 33.5500 -84.3833 257° West 289 333 11,300 -1,200 Descending Atlanta TRACON
Fri 02:44:51 PM 33.5500 -84.4833 270° West 307 353 9,600 -1,900 Descending Atlanta TRACON
Fri 02:45:51 PM 33.5500 -84.5667 270° West 275 316 7,500 -2,281 Descending Atlanta TRACON
Fri 02:46:52 PM 33.5500 -84.6667 270° West 270 311 5,000 -1,488 Descending Atlanta TRACON
Fri 02:47:52 PM 33.5500 -84.7500 270° West 239 275 4,500 -900 Descending Atlanta TRACON
Fri 02:48:52 PM 33.6167 -84.7500 360° North 217 250 3,200 -750 Descending Atlanta TRACON
Fri 02:49:52 PM 33.6333 -84.7000 68° East 169 194 3,000 -100 Descending Atlanta TRACON
Fri 02:50:52 PM 33.6167 -84.6500 112° Southeast 164 189 3,000  Level Atlanta TRACON
Fri 02:51:52 PM 33.6167 -84.6000 90° East 142 163 3,000 -100 Level Atlanta TRACON
Fri 02:52:52 PM 33.6167 -84.5500 90° East 144 166 2,800 -450 Descending Atlanta TRACON
Fri 02:53:52 PM 33.6167 -84.5167 90° East 131 151 2,100 -737 Descending Atlanta TRACON
Fri 02:54:46 PM 33.6167 -84.4667 90° East 129 148 1,400 -778 Descending Atlanta TRACON
Fri 02:56:00 PM 33.6333 -84.4167 64° Northeast  Level FlightAware Approximate
Fri 03:03:00 PM 33.6367 -84.4279 64° Northeast  Level Estimated
Fri 03:04:00 PM 33.6367 -84.4279 64° Northeast  Level Estimated

Login

Don't have an account? Register now (free) for customized features, flight alerts, and more!